^^

Metar de toute la France(point de départ, Chateauroux, classé dans l'ordre alphabétique actualisée toutes les 30 minutes)






LFBA - Agen/, France
Distance de la station: SSO 307km
Mise à jour: 23/07/2014 05:30
partiellement nuageux
partiellement nuageux
 Wind from NO
Vent: NO 4 km/h
Température: 16°C
Point de Rosée: 16°C
Humidité: 100%
Baromètre: 1015 hPa
Nuages: partiellement nuageux
Visibilité: 10 km
2014/07/23 03:30 LFBA 230330Z AUTO 31002KT 9999 NSC 16/16 Q1015
LFLP - Annecy/, France
Distance de la station: ESE 352km
Mise à jour: 23/07/2014 05:30
Couvert
Couvert
 Wind from variable
Vent: variable 6 km/h
Température: 17°C
Point de Rosée: 16°C
Humidité: 94%
Baromètre: 1014 hPa
Nuages: Couvert
Visibilité: 10 km
Nuages details: nuageux 244 m
Couvert 884 m
2014/07/23 03:30 LFLP 230330Z AUTO VRB03KT 9999 BKN008 OVC029 17/16 Q1014
 
LFOA - Avord/ , France
Distance de la station: ENE 76km
Mise à jour: 23/07/2014 05:30
Broulliard, nuageux
Broulliard, nuageux
 Wind from NO
Vent: NO 6 km/h
Température: 17°C
Point de Rosée: 17°C
Humidité: 100%
Baromètre: 1016 hPa
Récapitulatifs: Broulliard
Nuages: nuageux
Visibilité: 3 km
Nuages details: partiellement nuageux 305 m
nuageux 5182 m
nuageux 6096 m
2014/07/23 03:30 LFOA 230330Z AUTO 31003KT 3300 BR SCT010 BKN170 BKN200 17/17 Q1016
LFSB - Bale/, France
Distance de la station: ENE 449km
Mise à jour: 23/07/2014 05:30
Brouillard ou brume, nuageux
Brouillard ou brume, nuageux
 Wind from SSO
Vent: SSO 2 km/h
Température: 19°C
Point de Rosée: 18°C
Humidité: 94%
Baromètre: 1015 hPa
Récapitulatifs: Brouillard ou brume
Nuages: nuageux
Visibilité: 2 km
Nuages details: partiellement nuageux 91 m
nuageux 274 m
2014/07/23 03:30 LFSB 230330Z 20001KT 2000 0800S R15/P2000 R33/P2000 FG SCT003 BKN009 19/18 Q1015 TEMPO 0500FG
 
LFOB - Beauvais/, France
Distance de la station: N 296km
Mise à jour: 23/07/2014 05:30
Broulliard, Couvert
Broulliard, Couvert
 Wind from NNO
Vent: NNO 7 km/h
Température: 17°C
Point de Rosée: 17°C
Humidité: 100%
Baromètre: 1018 hPa
Récapitulatifs: Broulliard
Nuages: Couvert
Visibilité: 3 km
Nuages details: Couvert 91 m
2014/07/23 03:30 LFOB 230330Z AUTO 34004KT 320V020 2800 BR OVC003 17/17 Q1018
LFBE - Bergerac/, France
Distance de la station: SSO 240km
Mise à jour: 23/07/2014 05:30
Broulliard, partiellement nuageux
Broulliard, partiellement nuageux
 Wind from calm
Vent: Vent calme
Température: 15°C
Point de Rosée: 14°C
Humidité: 94%
Baromètre: 1015 hPa
Récapitulatifs: Broulliard
Nuages: partiellement nuageux
Visibilité: 5 km
2014/07/23 03:30 LFBE 230330Z AUTO 00000KT 5000 BR NSC 15/14 Q1015
 
LFMU - Beziers/, France
Distance de la station: SSE 411km
Mise à jour: 23/07/2014 05:30
partiellement nuageux
partiellement nuageux
 Wind from O
Vent: O 15 km/h
Température: 22°C
Point de Rosée: 15°C
Humidité: 65%
Nuages: partiellement nuageux
Visibilité: 10 km
2014/07/23 03:30 LFMU 230330Z AUTO 26008KT 9999 NSC 22/15 Q////
LFBZ - Biarritz/, France
Distance de la station: SO 449km
Mise à jour: 23/07/2014 05:30
Quelques Nuages
Quelques Nuages
 Wind from variable
Vent: variable 4 km/h
Température: 17°C
Point de Rosée: 16°C
Humidité: 94%
Baromètre: 1015 hPa
Nuages: Quelques Nuages
Visibilité: 10 km
Nuages details: Quelques Nuages 518 m
2014/07/23 03:30 LFBZ 230330Z AUTO VRB02KT 9999 FEW017 17/16 Q1015
 
LFBD - Bordeaux/, France
Distance de la station: SO 289km
Mise à jour: 23/07/2014 05:30
partiellement nuageux
partiellement nuageux
 Wind from variable
Vent: variable 2 km/h
Température: 18°C
Point de Rosée: 17°C
Humidité: 94%
Baromètre: 1015 hPa
Nuages: partiellement nuageux
Visibilité: 10 km
2014/07/23 03:30 LFBD 230330Z AUTO VRB01KT 9999 NSC 18/17 Q1015
LFAQ - Bray/, France
Distance de la station: N 358km
Mise à jour: 23/07/2014 05:30
Brouillard ou brume
Brouillard ou brume
 Wind from NNO
Vent: NNO 11 km/h
Température: 16°C
Point de Rosée: 16°C
Humidité: 100%
Baromètre: 1018 hPa
Récapitulatifs: Brouillard ou brume
Visibilité: 0 km
2014/07/23 03:30 LFAQ 230330Z AUTO 34006KT 0150 R27/0900D FG VV/// 16/16 Q1018
 
LFRB - Brest/, France
Distance de la station: ONO 492km
Mise à jour: 23/07/2014 05:30
partiellement nuageux
partiellement nuageux
 Wind from NE
Vent: NE 11 km/h
Température: 15°C
Point de Rosée: 14°C
Humidité: 94%
Baromètre: 1019 hPa
Nuages: partiellement nuageux
Visibilité: 5 km
2014/07/23 03:30 LFRB 230330Z 04006KT 5000 NSC 15/14 Q1019 NOSIG
LFRK - Caen/, France
Distance de la station: NNO 306km
Mise à jour: 23/07/2014 05:30
Couvert
Couvert
 Wind from N
Vent: N 7 km/h
Température: 18°C
Point de Rosée: 16°C
Humidité: 88%
Baromètre: 1019 hPa
Nuages: Couvert
Visibilité: 8 km
Nuages details: Couvert 244 m
2014/07/23 03:30 LFRK 230330Z AUTO 36004KT 320V030 8000 OVC008 18/16 Q1019
 
LFMK - Carcassonne/, France
Distance de la station: S 403km
Mise à jour: 23/07/2014 05:30
partiellement nuageux
partiellement nuageux
 Wind from O
Vent: O 15 km/h
Température: 18°C
Point de Rosée: 15°C
Humidité: 83%
Baromètre: 1014 hPa
Nuages: partiellement nuageux
Visibilité: 10 km
2014/07/23 03:30 LFMK 230330Z AUTO 27008KT 9999 NSC 18/15 Q1014
LFMV - Caumont/, France
Distance de la station: SE 410km
Mise à jour: 23/07/2014 05:30

 Wind from variable
Vent: variable 0 km/h
2014/07/23 03:30 LFMV 230330Z AUTO /////KT //// R17///// // ////// ///// Q1010
 
LFBC - Cazaux/, France
Distance de la station: SO 336km
Mise à jour: 23/07/2014 05:30
partiellement nuageux
partiellement nuageux
 Wind from N
Vent: N 7 km/h
Température: 17°C
Point de Rosée: 16°C
Humidité: 94%
Baromètre: 1015 hPa
Nuages: partiellement nuageux
Visibilité: 10 km
2014/07/23 03:30 LFBC 230330Z AUTO 01004KT 9999 NSC 17/16 Q1015
LFPC - Creil/, France
Distance de la station: NNE 278km
Mise à jour: 23/07/2014 05:30
Brouillard ou brume, Couvert
Brouillard ou brume, Couvert
 Wind from N
Vent: N 11 km/h
Température: 17°C
Point de Rosée: 16°C
Humidité: 94%
Baromètre: 1018 hPa
Récapitulatifs: Brouillard ou brume
Nuages: Couvert
Visibilité: 1 km
Nuages details: Couvert 61 m
2014/07/23 03:30 LFPC 230330Z AUTO 36006KT 330V030 0900 R25/P2000 FG OVC002 17/16 Q1018
 
LFLB - Chambery/, France
Distance de la station: ESE 348km
Mise à jour: 23/07/2014 05:30
Couvert
Couvert
 Wind from SSE
Vent: SSE 6 km/h
Température: 18°C
Point de Rosée: 17°C
Humidité: 94%
Baromètre: 1013 hPa
Nuages: Couvert
Visibilité: 10 km
Nuages details: partiellement nuageux 610 m
Couvert 1036 m
2014/07/23 03:30 LFLB 230330Z AUTO 15003KT 9999 SCT020 OVC034 18/17 Q1013
LFOK - Chalons/, France
Distance de la station: NE 287km
Mise à jour: 23/07/2014 05:30
Broulliard, partiellement nuageux
Broulliard, partiellement nuageux
 Wind from N
Vent: N 15 km/h
Température: 17°C
Point de Rosée: 16°C
Humidité: 94%
Baromètre: 1017 hPa
Récapitulatifs: Broulliard
Nuages: partiellement nuageux
Visibilité: 3 km
2014/07/23 03:30 LFOK 230330Z AUTO 36008KT 2800 BR NSC 17/16 Q1017
 
LFOC - Chateaudun/, France
Distance de la station: N 137km
Mise à jour: 23/07/2014 05:30
partiellement nuageux
partiellement nuageux
 Wind from N
Vent: N 9 km/h
Température: 17°C
Point de Rosée: 16°C
Humidité: 94%
Baromètre: 1017 hPa
Nuages: partiellement nuageux
Visibilité: 10 km
2014/07/23 03:30 LFOC 230330Z AUTO 35005KT 9999 NSC 17/16 Q1017
LFLX - Chateauroux/, France
Distance de la station: NE 4km
Mise à jour: 23/07/2014 05:30
Couvert
Couvert
 Wind from N
Vent: N 11 km/h
Température: 19°C
Point de Rosée: 17°C
Humidité: 88%
Baromètre: 1016 hPa
Nuages: Couvert
Visibilité: 10 km
Nuages details: Couvert 427 m
2014/07/23 03:30 LFLX 230330Z AUTO 36006KT 9999 OVC014 19/17 Q1016
 
LFPG - Charles De Gaulle/, France
Distance de la station: NNE 252km
Mise à jour: 23/07/2014 05:30
Broulliard, nuageux
Broulliard, nuageux
 Wind from N
Vent: N 17 km/h
Température: 17°C
Point de Rosée: 16°C
Humidité: 94%
Baromètre: 1018 hPa
Récapitulatifs: Broulliard
Nuages: nuageux
Visibilité: 1 km
Nuages details: Quelques Nuages 30 m
nuageux 61 m
2014/07/23 03:30 LFPG 230330Z 01009KT 1200 R27L/P2000 R09R/P2000 R26R/P2000 R08L/P2000 R26L/P2000 R08R/P2000 R27R/P2000 R09L/P2000 BR FEW001 BKN002 17/16 Q1018 NOSIG
LFRC - Cherbourg/, France
Distance de la station: NO 390km
Mise à jour: 23/07/2014 05:30
partiellement nuageux
partiellement nuageux
 Wind from NNE
Vent: NNE 7 km/h
Température: 16°C
Point de Rosée: 14°C
Humidité: 88%
Baromètre: 1020 hPa
Nuages: partiellement nuageux
Visibilité: 10 km
2014/07/23 03:30 LFRC 230330Z AUTO 03004KT 9999 NSC 16/14 Q1020
 
LFLC - Clermont/, France
Distance de la station: SE 163km
Mise à jour: 23/07/2014 05:30
nuageux
nuageux
 Wind from N
Vent: N 7 km/h
Température: 18°C
Point de Rosée: 17°C
Humidité: 94%
Baromètre: 1015 hPa
Nuages: nuageux
Visibilité: 5 km
Nuages details: nuageux 213 m
2014/07/23 03:30 LFLC 230330Z 35004KT 320V020 5000 BKN007 18/17 Q1015 NOSIG
LFBG - Cognac/, France
Distance de la station: SO 200km
Mise à jour: 23/07/2014 05:30
partiellement nuageux
partiellement nuageux
 Wind from N
Vent: N 7 km/h
Température: 18°C
Point de Rosée: 16°C
Humidité: 88%
Baromètre: 1016 hPa
Nuages: partiellement nuageux
Visibilité: 10 km
2014/07/23 03:30 LFBG 230330Z AUTO 36004KT 9999 NSC 18/16 Q1016
 
LFBY - Dax/, France
Distance de la station: SSO 411km
Mise à jour: 23/07/2014 05:00

 Wind from calm
Vent: Vent calme
Température: 16°C
Point de Rosée: 16°C
Humidité: 100%
Baromètre: 1015 hPa
Visibilité: 10 km
2014/07/23 03:00 LFBY 230300Z AUTO 00000KT 9999 // ////// 16/16 Q1015
LFSD - Dijon/, France
Distance de la station: ENE 261km
Mise à jour: 23/07/2014 05:30
partiellement nuageux
partiellement nuageux
 Wind from N
Vent: N 15 km/h
Température: 19°C
Point de Rosée: 17°C
Humidité: 88%
Baromètre: 1015 hPa
Nuages: partiellement nuageux
Visibilité: 10 km
2014/07/23 03:30 LFSD 230330Z AUTO 36008KT 9999 NSC 19/17 Q1015
 
LFRD - Dinard/, France
Distance de la station: NO 342km
Mise à jour: 23/07/2014 05:30
partiellement nuageux
partiellement nuageux
 Wind from NNE
Vent: NNE 11 km/h
Température: 17°C
Point de Rosée: 16°C
Humidité: 94%
Baromètre: 1019 hPa
Nuages: partiellement nuageux
Visibilité: 10 km
2014/07/23 03:30 LFRD 230330Z AUTO 03006KT 9999 NSC 17/16 Q1019
LFGJ - Dole/, France
Distance de la station: E 286km
Mise à jour: 23/07/2014 05:30
partiellement nuageux
partiellement nuageux
 Wind from NNE
Vent: NNE 9 km/h
Température: 18°C
Point de Rosée: 17°C
Humidité: 94%
Baromètre: 1014 hPa
Nuages: partiellement nuageux
Visibilité: 7 km
2014/07/23 03:30 LFGJ 230330Z AUTO 02005KT 350V050 7000 NSC 18/17 Q1014
 
LFOE - Evreux/, France
Distance de la station: N 247km
Mise à jour: 23/07/2014 05:30
Broulliard, Couvert
Broulliard, Couvert
 Wind from N
Vent: N 9 km/h
Température: 16°C
Point de Rosée: 16°C
Humidité: 100%
Baromètre: 1018 hPa
Récapitulatifs: Broulliard
Nuages: Couvert
Visibilité: 3 km
Nuages details: Couvert 91 m
2014/07/23 03:30 LFOE 230330Z AUTO 36005KT 320V040 2700 BR OVC003 16/16 Q1018
LFMT - Frejorgues/, France
Distance de la station: SSE 403km
Mise à jour: 23/07/2014 05:30
clair
clair
 Wind from NNO
Vent: NNO 7 km/h
Température: 23°C
Point de Rosée: 15°C
Humidité: 61%
Baromètre: 1011 hPa
Récapitulatifs: clair
Visibilité: supérieure à 10 km
2014/07/23 03:30 LFMT 230330Z 33004KT CAVOK 23/15 Q1011 NOSIG
 
LFMI - Istres/, France
Distance de la station: SE 446km
Mise à jour: 23/07/2014 05:30
partiellement nuageux
partiellement nuageux
 Wind from N
Vent: N 9 km/h
Température: 20°C
Point de Rosée: 17°C
Humidité: 83%
Baromètre: 1010 hPa
Nuages: partiellement nuageux
Visibilité: 10 km
2014/07/23 03:30 LFMI 230330Z AUTO 35005KT 9999 NSC 20/17 Q1010
LFLS - Grenoble/, France
Distance de la station: ESE 323km
Mise à jour: 23/07/2014 05:30
faible pluie, Broulliard, Couvert
faible pluie, Broulliard, Couvert
 Wind from N
Vent: N 9 km/h
Température: 18°C
Point de Rosée: 17°C
Humidité: 94%
Baromètre: 1014 hPa
Récapitulatifs: faible pluie, Broulliard
Nuages: Couvert
Visibilité: 4 km
Nuages details: Couvert 122 m
2014/07/23 03:30 LFLS 230330Z AUTO 01005KT 330V040 3900 -RA BR OVC004 18/17 Q1014
 
LFBH - La Rochelle/, France
Distance de la station: OSO 229km
Mise à jour: 23/07/2014 05:30
partiellement nuageux
partiellement nuageux
 Wind from NE
Vent: NE 11 km/h
Température: 18°C
Point de Rosée: 15°C
Humidité: 83%
Baromètre: 1016 hPa
Nuages: partiellement nuageux
Visibilité: 10 km
2014/07/23 03:30 LFBH 230330Z AUTO 05006KT 9999 NSC 18/15 Q1016
LFRI - La Roche Sur Yon/, France
Distance de la station: O 233km
Mise à jour: 23/07/2014 05:30
partiellement nuageux
partiellement nuageux
 Wind from N
Vent: N 9 km/h
Température: 16°C
Point de Rosée: 14°C
Humidité: 88%
Baromètre: 1017 hPa
Nuages: partiellement nuageux
Visibilité: 10 km
2014/07/23 03:30 LFRI 230330Z AUTO 01005KT 9999 NSC 16/14 Q1017
 
LFOH - Le Havre/, France
Distance de la station: NNO 323km
Mise à jour: 23/07/2014 05:30
Broulliard, Couvert
Broulliard, Couvert
 Wind from NE
Vent: NE 15 km/h
Température: 17°C
Point de Rosée: 16°C
Humidité: 94%
Baromètre: 1019 hPa
Récapitulatifs: Broulliard
Nuages: Couvert
Visibilité: 5 km
Nuages details: Couvert 152 m
2014/07/23 03:30 LFOH 230330Z AUTO 04008KT 5000 BR OVC005 17/16 Q1019
LFRM - Le Mans/, France
Distance de la station: NO 166km
Mise à jour: 23/07/2014 05:30
nuageux
nuageux
 Wind from N
Vent: N 7 km/h
Température: 18°C
Point de Rosée: 15°C
Humidité: 83%
Baromètre: 1018 hPa
Nuages: nuageux
Visibilité: 10 km
Nuages details: Quelques Nuages 945 m
nuageux 6706 m
2014/07/23 03:30 LFRM 230330Z AUTO 36004KT 320V030 9999 FEW031 BKN220 18/15 Q1018
 
LFRJ - Landivisiau/, France
Distance de la station: ONO 476km
Mise à jour: 23/07/2014 05:30
Broulliard, partiellement nuageux
Broulliard, partiellement nuageux
 Wind from E
Vent: E 6 km/h
Température: 14°C
Point de Rosée: 14°C
Humidité: 100%
Baromètre: 1019 hPa
Récapitulatifs: Broulliard
Nuages: partiellement nuageux
Visibilité: 5 km
2014/07/23 03:30 LFRJ 230330Z AUTO 09003KT 4600 BR NSC 14/14 Q1019
LFRO - Lannion/, France
Distance de la station: ONO 441km
Mise à jour: 23/07/2014 05:30
partiellement nuageux
partiellement nuageux
 Wind from calm
Vent: Vent calme
Température: 14°C
Point de Rosée: 13°C
Humidité: 94%
Baromètre: 1019 hPa
Nuages: partiellement nuageux
Visibilité: 8 km
2014/07/23 03:30 LFRO 230330Z AUTO 00000KT 8000 NSC 14/13 Q1019
 
LFRL - Lanveoc/, France
Distance de la station: ONO 485km
Mise à jour: 23/07/2014 05:30
partiellement nuageux
partiellement nuageux
 Wind from NE
Vent: NE 6 km/h
Température: 15°C
Point de Rosée: 14°C
Humidité: 94%
Baromètre: 1019 hPa
Nuages: partiellement nuageux
Visibilité: 10 km
2014/07/23 03:30 LFRL 230330Z AUTO 04003KT 9999 NSC 15/14 Q1019
LFBL - Limoges/, France
Distance de la station: SSO 113km
Mise à jour: 23/07/2014 05:30
partiellement nuageux
partiellement nuageux
 Wind from N
Vent: N 7 km/h
Température: 17°C
Point de Rosée: 15°C
Humidité: 88%
Baromètre: 1016 hPa
Nuages: partiellement nuageux
Visibilité: 10 km
2014/07/23 03:30 LFBL 230330Z AUTO 01004KT 340V040 9999 NSC 17/15 Q1016
 
LFQQ - Lille/, France
Distance de la station: NNE 430km
Mise à jour: 23/07/2014 05:00
Broulliard, partiellement nuageux
Broulliard, partiellement nuageux
 Wind from NNE
Vent: NNE 9 km/h
Température: 18°C
Point de Rosée: 17°C
Humidité: 94%
Baromètre: 1018 hPa
Récapitulatifs: Broulliard
Nuages: partiellement nuageux
Visibilité: 4 km
2014/07/23 03:00 LFQQ 230300Z 03005KT 4000 BR NSC 18/17 Q1018 NOSIG
LFRH - Lorient/, France
Distance de la station: ONO 401km
Mise à jour: 23/07/2014 05:30
partiellement nuageux
partiellement nuageux
 Wind from E
Vent: E 9 km/h
Température: 16°C
Point de Rosée: 14°C
Humidité: 88%
Baromètre: 1018 hPa
Nuages: partiellement nuageux
Visibilité: 10 km
2014/07/23 03:30 LFRH 230330Z AUTO 08005KT 9999 NSC 16/14 Q1018
 
LFLY - Lyon/, France
Distance de la station: ESE 279km
Mise à jour: 23/07/2014 05:30
nuageux
nuageux
 Wind from N
Vent: N 11 km/h
Température: 20°C
Point de Rosée: 17°C
Humidité: 83%
Baromètre: 1013 hPa
Nuages: nuageux
Visibilité: 10 km
Nuages details: nuageux 335 m
2014/07/23 03:30 LFLY 230330Z AUTO 35006KT 9999 BKN011 20/17 Q1013
LFLL - Lyon/Satolas, France
Distance de la station: ESE 287km
Mise à jour: 23/07/2014 05:30
nuageux
nuageux
 Wind from N
Vent: N 11 km/h
Température: 19°C
Point de Rosée: 17°C
Humidité: 88%
Baromètre: 1013 hPa
Nuages: nuageux
Visibilité: 7 km
Nuages details: nuageux 213 m
nuageux 1402 m
2014/07/23 03:30 LFLL 230330Z 35006KT 7000 BKN007 BKN046 19/17 Q1013 TEMPO BKN005
 
LFSX - Luxeuil/, France
Distance de la station: ENE 366km
Mise à jour: 23/07/2014 05:30
Brouillard ou brume
Brouillard ou brume
 Wind from calm
Vent: Vent calme
Température: 16°C
Point de Rosée: 16°C
Humidité: 100%
Baromètre: 1015 hPa
Récapitulatifs: Brouillard ou brume
Visibilité: 0 km
2014/07/23 03:30 LFSX 230330Z AUTO 00000KT 0150 R11/0650U FG VV/// 16/16 Q1015
LFJR - Marce/, France
Distance de la station: NO 134km
Mise à jour: 23/07/2014 05:30
nuageux
nuageux
 Wind from N
Vent: N 6 km/h
Température: 17°C
Point de Rosée: 16°C
Humidité: 94%
Baromètre: 1017 hPa
Nuages: nuageux
Visibilité: 6 km
Nuages details: partiellement nuageux 1036 m
nuageux 6096 m
2014/07/23 03:30 LFJR 230330Z AUTO 35003KT 330V030 6000 SCT034 BKN200 17/16 Q1017
 
LFML - Marseille/, France
Distance de la station: SE 466km
Mise à jour: 23/07/2014 05:30
partiellement nuageux
partiellement nuageux
 Wind from variable
Vent: variable 4 km/h
Température: 17°C
Point de Rosée: 15°C
Humidité: 88%
Baromètre: 1010 hPa
Nuages: partiellement nuageux
Visibilité: 10 km
2014/07/23 03:30 LFML 230330Z AUTO VRB02KT 9999 NSC 17/15 Q1010
LFPM - Melun/, France
Distance de la station: NNE 213km
Mise à jour: 23/07/2014 05:30
Broulliard, Couvert
Broulliard, Couvert
 Wind from N
Vent: N 11 km/h
Température: 17°C
Point de Rosée: 16°C
Humidité: 94%
Baromètre: 1017 hPa
Récapitulatifs: Broulliard
Nuages: Couvert
Visibilité: 3 km
Nuages details: Couvert 91 m
2014/07/23 03:30 LFPM 230330Z AUTO 36006KT 2900 BR OVC003 17/16 Q1017
 
LFJL - Metz-Nancy-Lorra/, France
Distance de la station: NE 416km
Mise à jour: 23/07/2014 05:30
partiellement nuageux
partiellement nuageux
 Wind from N
Vent: N 7 km/h
Température: 18°C
Point de Rosée: 17°C
Humidité: 94%
Baromètre: 1017 hPa
Nuages: partiellement nuageux
Visibilité: 8 km
2014/07/23 03:30 LFJL 230330Z AUTO 01004KT 8000 NSC 18/17 Q1017
LFBM - Mont-De-Marsan/, France
Distance de la station: SSO 365km
Mise à jour: 23/07/2014 05:30
partiellement nuageux
partiellement nuageux
 Wind from calm
Vent: Vent calme
Température: 16°C
Point de Rosée: 15°C
Humidité: 94%
Baromètre: 1015 hPa
Nuages: partiellement nuageux
Visibilité: 10 km
2014/07/23 03:30 LFBM 230330Z AUTO 00000KT 9999 NSC 16/15 Q1015
 
LFSO - Nancy/, France
Distance de la station: ENE 375km
Mise à jour: 23/07/2014 05:30
Brouillard ou brume, partiellement nuageux
Brouillard ou brume, partiellement nuageux
 Wind from calm
Vent: Vent calme
Température: 17°C
Point de Rosée: 16°C
Humidité: 94%
Baromètre: 1017 hPa
Récapitulatifs: Brouillard ou brume
Nuages: partiellement nuageux
Visibilité: 1 km
2014/07/23 03:30 LFSO 230330Z AUTO 00000KT 0800 FG NSC 17/16 Q1017
LFRS - Nantes/, France
Distance de la station: O 252km
Mise à jour: 23/07/2014 05:30
clair
clair
 Wind from NNE
Vent: NNE 7 km/h
Température: 18°C
Point de Rosée: 15°C
Humidité: 83%
Baromètre: 1017 hPa
Récapitulatifs: clair
Visibilité: supérieure à 10 km
2014/07/23 03:30 LFRS 230330Z 03004KT 340V080 CAVOK 18/15 Q1017 NOSIG
 
LFTW - Nimes/, France
Distance de la station: SE 402km
Mise à jour: 23/07/2014 05:30
partiellement nuageux
partiellement nuageux
 Wind from N
Vent: N 15 km/h
Température: 20°C
Point de Rosée: 14°C
Humidité: 69%
Baromètre: 1011 hPa
Nuages: partiellement nuageux
Visibilité: 10 km
Nuages details: partiellement nuageux 792 m
2014/07/23 03:30 LFTW 230330Z AUTO 35008KT 310V020 9999 SCT026 20/14 Q1011
LFMO - Orange/, France
Distance de la station: SE 387km
Mise à jour: 23/07/2014 05:30

 Wind from N
Vent: N 26 km/h
Température: 20°C
Point de Rosée: 17°C
Humidité: 83%
Baromètre: 1010 hPa
Visibilité: 10 km
2014/07/23 03:30 LFMO 230330Z AUTO 35014KT 9999 ////// 20/17 Q1010
 
LFOJ - Orleans/, France
Distance de la station: N 128km
Mise à jour: 23/07/2014 05:30
Broulliard, partiellement nuageux
Broulliard, partiellement nuageux
 Wind from N
Vent: N 11 km/h
Température: 17°C
Point de Rosée: 16°C
Humidité: 94%
Baromètre: 1017 hPa
Récapitulatifs: Broulliard
Nuages: partiellement nuageux
Visibilité: 4 km
2014/07/23 03:30 LFOJ 230330Z AUTO 36006KT 4400 BR NSC 17/16 Q1017
LFPB - Paris/, France
Distance de la station: NNE 246km
Mise à jour: 23/07/2014 05:30
Broulliard, Couvert
Broulliard, Couvert
 Wind from N
Vent: N 7 km/h
Température: 17°C
Point de Rosée: 16°C
Humidité: 94%
Baromètre: 1018 hPa
Récapitulatifs: Broulliard
Nuages: Couvert
Visibilité: 4 km
Nuages details: Couvert 152 m
2014/07/23 03:30 LFPB 230330Z AUTO 36004KT 330V030 3800 BR OVC005 17/16 Q1018
 
LFPO - Paris/Orly/, France
Distance de la station: NNE 218km
Mise à jour: 23/07/2014 05:30
partiellement nuageux
partiellement nuageux
 Wind from N
Vent: N 11 km/h
Température: 17°C
Point de Rosée: 15°C
Humidité: 88%
Baromètre: 1017 hPa
Nuages: partiellement nuageux
Visibilité: 6 km
Nuages details: Quelques Nuages 244 m
partiellement nuageux 6706 m
2014/07/23 03:30 LFPO 230330Z 36006KT 330V030 6000 FEW008 SCT220 17/15 Q1017 TEMPO 2000 BR BKN004
LFMP - Perpignan/, France
Distance de la station: SSE 465km
Mise à jour: 23/07/2014 05:30
partiellement nuageux
partiellement nuageux
 Wind from NO
Vent: NO 30 km/h
Température: 23°C
Point de Rosée: 15°C
Humidité: 61%
Baromètre: 1012 hPa
Nuages: partiellement nuageux
Visibilité: 10 km
2014/07/23 03:30 LFMP 230330Z AUTO 31016KT 9999 NSC 23/15 Q1012
 
LFBI - Poitiers/, France
Distance de la station: OSO 108km
Mise à jour: 23/07/2014 05:30
Couvert
Couvert
 Wind from N
Vent: N 9 km/h
Température: 19°C
Point de Rosée: 17°C
Humidité: 88%
Baromètre: 1017 hPa
Nuages: Couvert
Visibilité: 10 km
Nuages details: nuageux 549 m
Couvert 732 m
2014/07/23 03:30 LFBI 230330Z AUTO 01005KT 9999 BKN018 OVC024 19/17 Q1017
LFRQ - Quimper/, France
Distance de la station: ONO 458km
Mise à jour: 23/07/2014 05:30
partiellement nuageux
partiellement nuageux
 Wind from NNE
Vent: NNE 9 km/h
Température: 15°C
Point de Rosée: 14°C
Humidité: 94%
Baromètre: 1019 hPa
Nuages: partiellement nuageux
Visibilité: 10 km
2014/07/23 03:30 LFRQ 230330Z AUTO 03005KT 9999 NSC 15/14 Q1019
 
LFRN - Rennes/, France
Distance de la station: ONO 291km
Mise à jour: 23/07/2014 05:30
partiellement nuageux
partiellement nuageux
 Wind from NNE
Vent: NNE 6 km/h
Température: 17°C
Point de Rosée: 15°C
Humidité: 88%
Baromètre: 1018 hPa
Nuages: partiellement nuageux
Visibilité: 10 km
2014/07/23 03:30 LFRN 230330Z AUTO 02003KT 9999 NSC 17/15 Q1018
LFCR - Rodez/, France
Distance de la station: SSE 277km
Mise à jour: 23/07/2014 05:30
Couvert
Couvert
 Wind from variable
Vent: variable 4 km/h
Température: 16°C
Point de Rosée: 14°C
Humidité: 88%
Baromètre: 1016 hPa
Nuages: Couvert
Visibilité: 10 km
Nuages details: nuageux 975 m
Couvert 2560 m
2014/07/23 03:30 LFCR 230330Z AUTO VRB02KT 9999 BKN032 OVC084 16/14 Q1016
 
LFYR - Romorantin/, France
Distance de la station: N 56km
Mise à jour: 23/07/2014 05:30
nuageux
nuageux
 Wind from NNO
Vent: NNO 6 km/h
Température: 19°C
Point de Rosée: 17°C
Humidité: 88%
Baromètre: 1016 hPa
Nuages: nuageux
Visibilité: 10 km
Nuages details: Quelques Nuages 274 m
nuageux 2134 m
nuageux 2560 m
2014/07/23 03:30 LFYR 230330Z AUTO 33003KT 290V350 9999 FEW009 BKN070 BKN084 19/17 Q1016
LFOP - Rouen/, France
Distance de la station: N 286km
Mise à jour: 23/07/2014 05:30
Broulliard, Couvert
Broulliard, Couvert
 Wind from N
Vent: N 9 km/h
Température: 17°C
Point de Rosée: 16°C
Humidité: 94%
Baromètre: 1019 hPa
Récapitulatifs: Broulliard
Nuages: Couvert
Visibilité: 3 km
Nuages details: Couvert 91 m
2014/07/23 03:30 LFOP 230330Z AUTO 01005KT 2700 BR OVC003 17/16 Q1019
 
LFMY - Salon/, France
Distance de la station: SE 446km
Mise à jour: 23/07/2014 05:30
partiellement nuageux
partiellement nuageux
 Wind from variable
Vent: variable 2 km/h
Température: 18°C
Point de Rosée: 15°C
Humidité: 83%
Baromètre: 1010 hPa
Nuages: partiellement nuageux
Visibilité: 10 km
2014/07/23 03:30 LFMY 230330Z AUTO VRB01KT 9999 NSC 18/15 Q1010
LFST - Strasbourg/, France
Distance de la station: ENE 483km
Mise à jour: 23/07/2014 05:30
partiellement nuageux
partiellement nuageux
 Wind from variable
Vent: variable 4 km/h
Température: 17°C
Point de Rosée: 15°C
Humidité: 88%
Baromètre: 1016 hPa
Nuages: partiellement nuageux
Visibilité: 10 km
2014/07/23 03:30 LFST 230330Z AUTO VRB02KT 9999 NSC 17/15 Q1016
 
LFRT - Saint-Brieuc/, France
Distance de la station: ONO 388km
Mise à jour: 22/07/2014 22:00
Pas à jour
partiellement nuageux
partiellement nuageux
 Wind from NNE
Vent: NNE 6 km/h
Température: 18°C
Point de Rosée: 15°C
Humidité: 83%
Baromètre: 1022 hPa
Nuages: partiellement nuageux
Visibilité: 10 km
2014/07/22 20:00 LFRT 222000Z AUTO 03003KT 9999 NSC 18/15 Q1022
LFSI - St. Dizier/, France
Distance de la station: NE 313km
Mise à jour: 23/07/2014 05:30
Broulliard, partiellement nuageux
Broulliard, partiellement nuageux
 Wind from calm
Vent: Vent calme
Température: 16°C
Point de Rosée: 15°C
Humidité: 94%
Baromètre: 1016 hPa
Récapitulatifs: Broulliard
Nuages: partiellement nuageux
Visibilité: 5 km
2014/07/23 03:30 LFSI 230330Z AUTO 00000KT 4500 R29/1200U BR NSC 16/15 Q1016
 
LFMH - St Etienne/, France
Distance de la station: SE 247km
Mise à jour: 23/07/2014 05:30
Broulliard, Couvert
Broulliard, Couvert
 Wind from NNO
Vent: NNO 11 km/h
Température: 17°C
Point de Rosée: 17°C
Humidité: 100%
Baromètre: 1015 hPa
Récapitulatifs: Broulliard
Nuages: Couvert
Visibilité: 1 km
Nuages details: Couvert 61 m
2014/07/23 03:30 LFMH 230330Z AUTO 33006KT 300V010 1400 R18/P2000 BR OVC002 17/17 Q1015
LFRG - St Gatien/, France
Distance de la station: NNO 305km
Mise à jour: 23/07/2014 05:30
Broulliard, Couvert
Broulliard, Couvert
 Wind from NE
Vent: NE 7 km/h
Température: 17°C
Point de Rosée: 16°C
Humidité: 94%
Baromètre: 1019 hPa
Récapitulatifs: Broulliard
Nuages: Couvert
Visibilité: 4 km
Nuages details: Couvert 152 m
2014/07/23 03:30 LFRG 230330Z AUTO 04004KT 010V090 4300 BR OVC005 17/16 Q1019
 
LFRZ - St. Nazaire/, France
Distance de la station: ONO 297km
Mise à jour: 23/07/2014 05:30
partiellement nuageux
partiellement nuageux
 Wind from variable
Vent: variable 6 km/h
Température: 17°C
Point de Rosée: 14°C
Humidité: 83%
Baromètre: 1017 hPa
Nuages: partiellement nuageux
Visibilité: 10 km
2014/07/23 03:30 LFRZ 230330Z AUTO VRB03KT 9999 NSC 17/14 Q1017
LFLN - Saint Yan/, France
Distance de la station: ESE 184km
Mise à jour: 23/07/2014 05:30
Broulliard, Couvert
Broulliard, Couvert
 Wind from ONO
Vent: ONO 9 km/h
Température: 18°C
Point de Rosée: 17°C
Humidité: 94%
Baromètre: 1015 hPa
Récapitulatifs: Broulliard
Nuages: Couvert
Visibilité: 3 km
Nuages details: nuageux 91 m
Couvert 3962 m
2014/07/23 03:30 LFLN 230330Z AUTO 30005KT 2600 BR BKN003 OVC130 18/17 Q1015
 
LFBT - Tarbes/, France
Distance de la station: SSO 427km
Mise à jour: 23/07/2014 05:30
partiellement nuageux
partiellement nuageux
 Wind from S
Vent: S 9 km/h
Température: 14°C
Point de Rosée: 13°C
Humidité: 94%
Baromètre: 1016 hPa
Nuages: partiellement nuageux
Visibilité: 10 km
2014/07/23 03:30 LFBT 230330Z AUTO 19005KT 9999 NSC 14/13 Q1016
LFSL - Toul/, France
Distance de la station: NE 356km
Mise à jour: 23/07/2014 05:30
partiellement nuageux
partiellement nuageux
 Wind from N
Vent: N 7 km/h
Température: 18°C
Point de Rosée: 16°C
Humidité: 88%
Baromètre: 1016 hPa
Nuages: partiellement nuageux
Visibilité: 10 km
2014/07/23 03:30 LFSL 230330Z AUTO 35004KT 9999 NSC 18/16 Q1016
 
LFBO - Toulouse/, France
Distance de la station: S 357km
Mise à jour: 23/07/2014 05:30
partiellement nuageux
partiellement nuageux
 Wind from S
Vent: S 7 km/h
Température: 16°C
Point de Rosée: 15°C
Humidité: 94%
Baromètre: 1015 hPa
Nuages: partiellement nuageux
Visibilité: 10 km
2014/07/23 03:30 LFBO 230330Z AUTO 19004KT 9999 NSC 16/15 Q1015
LFOT - Tours/, France
Distance de la station: NO 100km
Mise à jour: 23/07/2014 05:30
nuageux
nuageux
 Wind from N
Vent: N 9 km/h
Température: 19°C
Point de Rosée: 16°C
Humidité: 83%
Baromètre: 1017 hPa
Nuages: nuageux
Visibilité: 10 km
Nuages details: nuageux 914 m
nuageux 2225 m
2014/07/23 03:30 LFOT 230330Z 01005KT 9999 BKN030 BKN073 19/16 Q1017 NOSIG
 
LFPN - Toussus Le Noble/, France
Distance de la station: N 217km
Mise à jour: 23/07/2014 05:30
Broulliard, partiellement nuageux
Broulliard, partiellement nuageux
 Wind from NNO
Vent: NNO 9 km/h
Température: 16°C
Point de Rosée: 15°C
Humidité: 94%
Baromètre: 1018 hPa
Récapitulatifs: Broulliard
Nuages: partiellement nuageux
Visibilité: 5 km
Nuages details: partiellement nuageux 183 m
partiellement nuageux 7620 m
2014/07/23 03:30 LFPN 230330Z AUTO 33005KT 300V360 5000 BR SCT006 SCT250 16/15 Q1018
LFPV - Villacoublay/, France
Distance de la station: N 220km
Mise à jour: 23/07/2014 05:30
Broulliard, partiellement nuageux
Broulliard, partiellement nuageux
 Wind from N
Vent: N 15 km/h
Température: 17°C
Point de Rosée: 15°C
Humidité: 88%
Baromètre: 1018 hPa
Récapitulatifs: Broulliard
Nuages: partiellement nuageux
Visibilité: 5 km
2014/07/23 03:30 LFPV 230330Z AUTO 36008KT 5000 BR NSC 17/15 Q1018